D. Carlos I — CTHJ — position and weather

sailwx.info

Track history (hours):
 
Tides and Currents Weather Stations Pressure Air Temp Water Temp Dewpoint Dewpoint Depression Visibility Wind Speed Wind Dir Waves Ship Positions

Oceanographic research ship D. Carlos I (Portugal)

Detailed information on ship capabilities available from University of Delaware's Ocean Information Center.

Last reported at 2019-Sep-28 20:50 UTC. Time now 2019-Oct-22 23:53 UTC.
Position N 38°40' W 009°09'.
Warning: this ship's position is 24 days out of date.

Length 69 m; draft 5.6 m.

MMSI: 263144000.

Date/timePositionNaut miles runAvg speedWind from/ knotsBaromVisibWave heightAir tempDewpointWater temp
2019-Sep-28 20:50N 38°40' W 009°09'0 0.0
2019-Sep-28 20:30N 38°40' W 009°09'0 0.5
2019-Sep-28 20:01N 38°40' W 009°09'1 3.0
2019-Sep-28 19:30N 38°42' W 009°09'2 4.9
2019-Sep-28 19:00N 38°41' W 009°12'2 4.5
2019-Sep-28 18:30N 38°41' W 009°15'2 4.3
2019-Sep-28 18:00N 38°41' W 009°17'2 3.2
2019-Sep-28 17:30N 38°40' W 009°19'3 5.3
2019-Sep-28 17:00N 38°38' W 009°21'3 6.4
2019-Sep-28 16:30N 38°35' W 009°22'3 6.7
2019-Sep-28 16:00N 38°32' W 009°21'3 5.2
2019-Sep-28 15:31N 38°29' W 009°21'3 5.9
2019-Sep-28 15:00N 38°26' W 009°20'3 6.4
2019-Sep-28 14:30N 38°23' W 009°20'2 4.1
2019-Sep-28 14:00N 38°21' W 009°20'2 4.7
2019-Sep-28 13:30N 38°18' W 009°20'3 6.3
2019-Sep-28 13:00N 38°15' W 009°19'2 3.7
2019-Sep-28 12:27N 38°13' W 009°19'3 6.6
2019-Sep-28 12:00N 38°10' W 009°18'3 6.5
2019-Sep-28 11:29N 38°07' W 009°18'3 6.2
2019-Sep-28 11:00N 38°04' W 009°17'3 6.1
2019-Sep-28 10:30N 38°01' W 009°17'3 6.1
2019-Sep-28 10:00N 37°58' W 009°16'3 6.0
2019-Sep-28 09:30N 37°55' W 009°16'3 6.0
2019-Sep-28 09:00N 37°52' W 009°15'3 5.9
2019-Sep-28 08:30N 37°49' W 009°15'3 5.8
2019-Sep-28 08:00N 37°46' W 009°14'4 5.9
2019-Sep-28 07:16N 37°42' W 009°14'1 5.9
2019-Sep-28 07:00N 37°40' W 009°13'3 6.1
2019-Sep-28 06:29N 37°37' W 009°12'6 6.4
2019-Sep-28 05:31N 37°31' W 009°12'0 6.9
2019-Sep-28 05:30N 37°31' W 009°12'6 6.8
2019-Sep-28 04:37N 37°25' W 009°10'3 7.0
2019-Sep-28 04:13N 37°22' W 009°10'25 6.5
2019-Sep-28 00:23N 36°58' W 009°06'11 6.0
2019-Sep-27 22:32N 36°50' W 008°56'4 6.6
2019-Sep-27 21:54N 36°47' W 008°52'3 6.7
2019-Sep-27 21:25N 36°45' W 008°49'3 6.7
2019-Sep-27 21:00N 36°43' W 008°47'3 6.8
2019-Sep-27 20:30N 36°40' W 008°44'3 6.8
2019-Sep-27 20:00N 36°38' W 008°41'5 6.7
2019-Sep-27 19:19N 36°35' W 008°36'2 6.7
2019-Sep-27 19:00N 36°34' W 008°34'3 6.7
2019-Sep-27 18:30N 36°31' W 008°31'4 6.8
2019-Sep-27 17:55N 36°29' W 008°28'4 7.2
2019-Sep-27 17:18N 36°26' W 008°24'3 7.2
2019-Sep-27 16:51N 36°23' W 008°21'3 7.3
2019-Sep-27 16:28N 36°21' W 008°18'3 2.0
2019-Sep-27 14:55N 36°20' W 008°15'33 5.2
2019-Sep-27 08:31N 36°41' W 008°48'0 7.8
2019-Sep-27 08:30N 36°41' W 008°48'4 8.0
2019-Sep-27 08:00N 36°43' W 008°52'16 8.1
2019-Sep-27 06:04N 36°53' W 009°07'1 7.9
2019-Sep-27 05:59N 36°54' W 009°07'47 7.6
2019-Sep-26 23:44N 37°41' W 009°07'2 8.2
2019-Sep-26 23:27N 37°43' W 009°07'4 8.2
2019-Sep-26 23:00N 37°47' W 009°07'4 8.3
2019-Sep-26 22:30N 37°51' W 009°07'4 8.4
2019-Sep-26 22:00N 37°55' W 009°07'4 8.2
2019-Sep-26 21:30N 37°59' W 009°07'4 8.1
2019-Sep-26 21:00N 38°03' W 009°07'4 7.8
2019-Sep-26 20:30N 38°07' W 009°07'4 7.7
2019-Sep-26 20:01N 38°11' W 009°06'4 7.7
2019-Sep-26 19:30N 38°15' W 009°06'4 7.6
2019-Sep-26 19:00N 38°19' W 009°06'4 7.9
2019-Sep-26 18:30N 38°23' W 009°06'3 6.0
2019-Sep-26 17:58N 38°26' W 009°06'0 0.1
2019-Sep-26 17:28N 38°26' W 009°06'0 0.0
2019-Sep-26 16:58N 38°26' W 009°06'0 0.0
2019-Sep-26 16:28N 38°26' W 009°06'0 0.0
2019-Sep-26 15:55N 38°26' W 009°06'0 0.0
2019-Sep-26 15:28N 38°26' W 009°06'0 0.1
2019-Sep-26 14:55N 38°26' W 009°06'0 0.1
2019-Sep-26 14:28N 38°26' W 009°06'0 0.0
2019-Sep-26 13:58N 38°26' W 009°06'0 0.0
2019-Sep-26 13:28N 38°26' W 009°06'0 0.1
2019-Sep-26 12:52N 38°26' W 009°06'0 0.0
2019-Sep-26 12:28N 38°26' W 009°06'0 0.0
2019-Sep-26 11:55N 38°26' W 009°06'0 0.0
2019-Sep-26 11:22N 38°26' W 009°06'0 0.0
2019-Sep-26 10:43N 38°26' W 009°06'0 0.0
2019-Sep-26 10:16N 38°26' W 009°06'0 0.0
2019-Sep-26 09:34N 38°26' W 009°06'0 0.0
2019-Sep-26 09:13N 38°26' W 009°06'0 0.0
2019-Sep-26 08:57N 38°26' W 009°06'0 0.0
2019-Sep-26 08:28N 38°26' W 009°06'0 0.0
2019-Sep-26 08:00N 38°26' W 009°06'0 0.0
2019-Sep-26 07:30N 38°26' W 009°06'0 0.0
2019-Sep-26 07:00N 38°26' W 009°06'1 2.4
2019-Sep-26 06:30N 38°25' W 009°06'4 1.1
2019-Sep-26 03:19N 38°21' W 009°08'2 7.9
2019-Sep-26 03:00N 38°21' W 009°04'2 3.3
2019-Sep-26 02:30N 38°21' W 009°06'1 1.3
2019-Sep-26 01:59N 38°21' W 009°06'3 6.2
2019-Sep-26 01:30N 38°19' W 009°04'4 7.4
2019-Sep-26 01:00N 38°17' W 008°60'4 8.8
2019-Sep-26 00:30N 38°14' W 008°56'1 2.8
2019-Sep-26 00:00N 38°14' W 008°54'2 3.9
2019-Sep-25 23:30N 38°16' W 008°54'3 5.7
2019-Sep-25 23:00N 38°13' W 008°54'4 7.6
2019-Sep-25 22:30N 38°17' W 008°54'2 4.0
2019-Sep-25 22:00N 38°19' W 008°54'4 7.1
2019-Sep-25 21:30N 38°15' W 008°54'2 3.6
2019-Sep-25 21:00N 38°13' W 008°53'4 7.7
2019-Sep-25 20:30N 38°17' W 008°53'1 1.1
2019-Sep-25 20:00N 38°17' W 008°53'3 6.8
2019-Sep-25 19:30N 38°13' W 008°53'2 3.8
2019-Sep-25 19:00N 38°15' W 008°53'4 7.6
2019-Sep-25 18:30N 38°19' W 008°53'4 7.3
2019-Sep-25 18:00N 38°23' W 008°55'3 6.8
2019-Sep-25 17:30N 38°24' W 008°58'4 7.2
2019-Sep-25 17:00N 38°25' W 009°03'3 5.4
2019-Sep-25 16:30N 38°26' W 009°06'0 0.1
2019-Sep-25 15:59N 38°26' W 009°06'0 0.1
2019-Sep-25 15:29N 38°26' W 009°06'0 0.0
2019-Sep-25 14:59N 38°26' W 009°06'0 0.0
2019-Sep-25 14:29N 38°26' W 009°06'0 0.0
2019-Sep-25 13:59N 38°26' W 009°06'0 0.1
2019-Sep-25 13:29N 38°26' W 009°06'0 0.0
2019-Sep-25 12:53N 38°26' W 009°06'0 0.0
2019-Sep-25 12:29N 38°26' W 009°06'0 0.0
2019-Sep-25 11:41N 38°26' W 009°06'0 0.0
2019-Sep-25 11:23N 38°26' W 009°06'0 0.0
2019-Sep-25 10:47N 38°26' W 009°06'0 0.1
2019-Sep-25 10:23N 38°26' W 009°06'0 0.0
2019-Sep-25 09:35N 38°26' W 009°06'0 0.3
2019-Sep-25 09:29N 38°26' W 009°06'0 0.0
2019-Sep-25 08:59N 38°26' W 009°06'0 0.0
2019-Sep-25 08:31N 38°26' W 009°06'0 0.0
2019-Sep-25 07:59N 38°26' W 009°06'0 0.0
2019-Sep-25 07:30N 38°26' W 009°06'0 0.1
2019-Sep-25 07:01N 38°26' W 009°06'1 2.7
2019-Sep-25 06:30N 38°25' W 009°06'3 5.8
2019-Sep-25 06:00N 38°24' W 009°02'4 7.6
2019-Sep-25 05:31N 38°24' W 008°58'3 6.5
2019-Sep-25 05:01N 38°21' W 008°56'4 7.3
2019-Sep-25 04:31N 38°17' W 008°55'4 7.1
2019-Sep-25 04:01N 38°14' W 008°54'3 5.2
2019-Sep-25 03:30N 38°17' W 008°54'3 5.9
2019-Sep-25 03:01N 38°19' W 008°54'4 7.3
2019-Sep-25 02:31N 38°16' W 008°54'2 4.7
2019-Sep-25 02:00N 38°13' W 008°54'4 7.5
2019-Sep-25 01:31N 38°17' W 008°54'2 3.5
2019-Sep-25 01:01N 38°15' W 008°54'2 3.4
2019-Sep-25 00:31N 38°14' W 008°54'4 7.5
2019-Sep-25 00:01N 38°17' W 008°54'1 1.6
2019-Sep-24 23:31N 38°18' W 008°54'4 7.4
2019-Sep-24 23:00N 38°15' W 008°54'1 1.8
2019-Sep-24 22:30N 38°14' W 008°54'4 7.5
2019-Sep-24 22:01N 38°17' W 008°54'1 2.0
2019-Sep-24 21:31N 38°18' W 008°54'4 7.4
2019-Sep-24 21:01N 38°15' W 008°54'2 4.3
2019-Sep-24 20:30N 38°13' W 008°53'3 6.6
2019-Sep-24 20:00N 38°16' W 008°53'4 7.7
2019-Sep-24 19:30N 38°20' W 008°53'4 7.7
2019-Sep-24 19:01N 38°23' W 008°55'4 7.3
2019-Sep-24 18:30N 38°24' W 008°60'4 7.1
2019-Sep-24 18:00N 38°25' W 009°04'2 2.2
2019-Sep-24 17:10N 38°26' W 009°06'0 0.0
2019-Sep-24 16:34N 38°26' W 009°06'0 0.1
2019-Sep-24 16:28N 38°26' W 009°06'0 0.0
2019-Sep-24 15:55N 38°26' W 009°06'0 0.0
2019-Sep-24 15:28N 38°26' W 009°06'0 0.0
2019-Sep-24 14:58N 38°26' W 009°06'0 0.0
2019-Sep-24 13:43N 38°26' W 009°06'0 0.0
2019-Sep-24 13:22N 38°26' W 009°06'0 0.0
2019-Sep-24 12:43N 38°26' W 009°06'0 0.0
2019-Sep-24 12:28N 38°26' W 009°06'0 0.0
2019-Sep-24 11:52N 38°26' W 009°06'0 0.0
2019-Sep-24 11:28N 38°26' W 009°06'0 0.0
2019-Sep-24 10:52N 38°26' W 009°06'0 0.0
2019-Sep-24 10:28N 38°26' W 009°06'0 0.0
2019-Sep-24 09:40N 38°26' W 009°06'0 0.0
2019-Sep-24 09:10N 38°26' W 009°06'0 0.0
2019-Sep-24 08:55N 38°26' W 009°06'0 0.0
2019-Sep-24 08:13N 38°26' W 009°06'0 0.0
2019-Sep-24 07:43N 38°26' W 009°06'0 0.0
2019-Sep-24 07:28N 38°26' W 009°06'0 0.0
2019-Sep-24 06:49N 38°26' W 009°06'0 0.0
2019-Sep-24 05:19N 38°26' W 009°06'0 0.0
2019-Sep-24 04:58N 38°26' W 009°06'0 0.0
2019-Sep-24 04:16N 38°26' W 009°06'0 0.0
2019-Sep-24 03:58N 38°26' W 009°06'0 0.0
2019-Sep-24 02:43N 38°26' W 009°06'0 0.0
2019-Sep-24 02:28N 38°26' W 009°06'0 0.0
2019-Sep-24 01:58N 38°26' W 009°06'0 0.0
2019-Sep-24 01:19N 38°26' W 009°06'0 0.1
2019-Sep-24 00:52N 38°26' W 009°06'0 0.1
2019-Sep-24 00:28N 38°26' W 009°06'0 0.0
2019-Sep-23 23:40N 38°26' W 009°06'0 0.1
2019-Sep-23 23:28N 38°26' W 009°06'0 0.0
2019-Sep-23 22:58N 38°26' W 009°06'0 0.0
2019-Sep-23 22:25N 38°26' W 009°06'0 0.0
2019-Sep-23 21:43N 38°26' W 009°06'0 0.0
2019-Sep-23 21:22N 38°26' W 009°06'0 0.0
2019-Sep-23 20:46N 38°26' W 009°06'0 0.0
2019-Sep-23 20:23N 38°26' W 009°06'0 0.0
2019-Sep-23 19:59N 38°26' W 009°06'0 0.0
2019-Sep-23 19:23N 38°26' W 009°06'0 0.0
2019-Sep-23 18:59N 38°26' W 009°06'0 0.0
2019-Sep-23 18:23N 38°26' W 009°06'0 0.0
2019-Sep-23 17:29N 38°26' W 009°06'0 0.0
2019-Sep-23 16:49N 38°26' W 009°06'0 0.0
2019-Sep-23 16:28N 38°26' W 009°06'0 0.0
2019-Sep-23 15:49N 38°26' W 009°06'0 0.0
2019-Sep-23 15:13N 38°26' W 009°06'0 0.0
2019-Sep-23 14:58N 38°26' W 009°06'0 0.0
2019-Sep-23 14:19N 38°26' W 009°06'0 0.0
2019-Sep-23 13:55N 38°26' W 009°06'0 0.1
2019-Sep-23 13:19N 38°26' W 009°06'0 0.0
2019-Sep-23 12:58N 38°26' W 009°06'0 0.0
2019-Sep-23 12:28N 38°26' W 009°06'0 0.0
2019-Sep-23 11:58N 38°26' W 009°06'0 0.0
2019-Sep-23 11:22N 38°26' W 009°06'0 0.0
2019-Sep-23 10:58N 38°26' W 009°06'0 0.0
2019-Sep-23 10:28N 38°26' W 009°06'0 0.0
2019-Sep-23 09:58N 38°26' W 009°06'0 0.0
2019-Sep-23 09:28N 38°26' W 009°06'0 0.0
2019-Sep-23 08:58N 38°26' W 009°06'0 0.0
2019-Sep-23 08:25N 38°26' W 009°06'0 0.0
2019-Sep-23 07:55N 38°26' W 009°06'0 0.0
2019-Sep-23 07:22N 38°26' W 009°06'0 0.0
2019-Sep-23 06:58N 38°26' W 009°06'0 0.0
2019-Sep-23 06:25N 38°26' W 009°06'0 0.0
2019-Sep-23 05:55N 38°26' W 009°06'0 0.0
2019-Sep-23 05:16N 38°26' W 009°06'0 0.0
2019-Sep-23 04:49N 38°26' W 009°06'0 0.0
2019-Sep-23 04:28N 38°26' W 009°06'0 0.0
2019-Sep-23 03:58N 38°26' W 009°06'0 0.0
2019-Sep-23 03:28N 38°26' W 009°06'0 0.0
2019-Sep-23 02:55N 38°26' W 009°06'0 0.0
2019-Sep-23 01:58N 38°26' W 009°06'0 0.0
2019-Sep-23 01:25N 38°26' W 009°06'0 0.0
2019-Sep-23 00:55N 38°26' W 009°06'0 0.0
2019-Sep-23 00:25N 38°26' W 009°06'0 0.0
2019-Sep-22 23:43N 38°26' W 009°06'0 0.0
2019-Sep-22 22:37N 38°26' W 009°06'0 0.0
2019-Sep-22 22:25N 38°26' W 009°06'0 0.0
2019-Sep-22 21:58N 38°26' W 009°06'0 0.0
2019-Sep-22 21:22N 38°26' W 009°06'0 0.0
2019-Sep-22 21:00N 38°26' W 009°06'2 4.3
2019-Sep-22 20:30N 38°24' W 009°08'3 6.9
2019-Sep-22 20:00N 38°23' W 009°12'3 5.8
2019-Sep-22 19:30N 38°25' W 009°16'4 8.1
2019-Sep-22 19:00N 38°28' W 009°17'4 8.0
2019-Sep-22 18:31N 38°32' W 009°18'4 7.8
2019-Sep-22 18:01N 38°36' W 009°21'4 7.3
2019-Sep-22 17:30N 38°39' W 009°20'4 7.0
2019-Sep-22 17:00N 38°41' W 009°15'4 8.7
2019-Sep-22 16:30N 38°42' W 009°10'2 0.0
2019-Sep-20 21:02N 38°40' W 009°09'0 0.0
2019-Sep-20 20:59N 38°40' W 009°09'0 0.0
2019-Sep-20 20:31N 38°40' W 009°09'2 3.3
2019-Sep-20 20:01N 38°42' W 009°08'4 8.3
2019-Sep-20 19:31N 38°41' W 009°14'4 8.7
2019-Sep-20 19:01N 38°40' W 009°19'4 8.6
2019-Sep-20 18:30N 38°36' W 009°23'4 7.7
2019-Sep-20 18:01N 38°33' W 009°21'4 7.8
2019-Sep-20 17:31N 38°29' W 009°19'4 7.8
2019-Sep-20 17:00N 38°26' W 009°16'4 7.4
2019-Sep-20 16:31N 38°24' W 009°12'4 7.8
2019-Sep-20 16:00N 38°25' W 009°07'3 5.8
2019-Sep-20 15:31N 38°25' W 009°03'4 8.8
2019-Sep-20 15:00N 38°27' W 008°58'4 7.5
2019-Sep-20 14:31N 38°30' W 008°55'1 2.5
2019-Sep-20 14:00N 38°31' W 008°54'0 0.3
2019-Sep-20 13:18N 38°31' W 008°54'0 0.0
2019-Sep-20 12:48N 38°31' W 008°54'0 0.0
2019-Sep-20 10:59N 38°31' W 008°54'1 1.7
2019-Sep-20 10:30N 38°31' W 008°55'3 4.9
2019-Sep-20 09:57N 38°29' W 008°52'0 0.0
2019-Sep-20 09:30N 38°29' W 008°52'0 0.5
2019-Sep-20 09:00N 38°29' W 008°52'3 5.1
2019-Sep-20 08:30N 38°30' W 008°55'1 1.5
2019-Sep-20 07:41N 38°31' W 008°54'0 0.0
2019-Sep-20 04:11N 38°31' W 008°54'0 0.0
2019-Sep-20 02:47N 38°31' W 008°54'0 0.0
2019-Sep-20 02:17N 38°31' W 008°54'0 0.0
2019-Sep-20 01:11N 38°31' W 008°54'0 0.0
2019-Sep-19 11:16N 38°31' W 008°54'0 0.7
2019-Sep-19 10:59N 38°31' W 008°54'2 4.1
2019-Sep-19 10:31N 38°29' W 008°53'1 2.5
2019-Sep-19 10:01N 38°28' W 008°52'1 1.2
2019-Sep-19 09:31N 38°29' W 008°52'0 0.6
2019-Sep-19 09:01N 38°29' W 008°52'2 3.1
2019-Sep-19 08:30N 38°30' W 008°53'  
Track history (hours):
 
Tides and Currents Weather Stations Pressure Air Temp Water Temp Dewpoint Dewpoint Depression Visibility Wind Speed Wind Dir Waves Ship Positions

Oceanographic research ship D. Carlos I (Portugal)

Detailed information on ship capabilities available from University of Delaware's Ocean Information Center.

Last reported at 2019-Sep-28 20:50 UTC. Time now 2019-Oct-22 23:53 UTC.
Position N 38°40' W 009°09'.
Warning: this ship's position is 24 days out of date.

Length 69 m; draft 5.6 m.

MMSI: 263144000.

Date/timePositionNaut miles runAvg speedWind from/ knotsBaromVisibWave heightAir tempDewpointWater temp
2019-Sep-28 20:50N 38°40' W 009°09'0 0.0
2019-Sep-28 20:30N 38°40' W 009°09'0 0.5
2019-Sep-28 20:01N 38°40' W 009°09'1 3.0
2019-Sep-28 19:30N 38°42' W 009°09'2 4.9
2019-Sep-28 19:00N 38°41' W 009°12'2 4.5
2019-Sep-28 18:30N 38°41' W 009°15'2 4.3
2019-Sep-28 18:00N 38°41' W 009°17'2 3.2
2019-Sep-28 17:30N 38°40' W 009°19'3 5.3
2019-Sep-28 17:00N 38°38' W 009°21'3 6.4
2019-Sep-28 16:30N 38°35' W 009°22'3 6.7
2019-Sep-28 16:00N 38°32' W 009°21'3 5.2
2019-Sep-28 15:31N 38°29' W 009°21'3 5.9
2019-Sep-28 15:00N 38°26' W 009°20'3 6.4
2019-Sep-28 14:30N 38°23' W 009°20'2 4.1
2019-Sep-28 14:00N 38°21' W 009°20'2 4.7
2019-Sep-28 13:30N 38°18' W 009°20'3 6.3
2019-Sep-28 13:00N 38°15' W 009°19'2 3.7
2019-Sep-28 12:27N 38°13' W 009°19'3 6.6
2019-Sep-28 12:00N 38°10' W 009°18'3 6.5
2019-Sep-28 11:29N 38°07' W 009°18'3 6.2
2019-Sep-28 11:00N 38°04' W 009°17'3 6.1
2019-Sep-28 10:30N 38°01' W 009°17'3 6.1
2019-Sep-28 10:00N 37°58' W 009°16'3 6.0
2019-Sep-28 09:30N 37°55' W 009°16'3 6.0
2019-Sep-28 09:00N 37°52' W 009°15'3 5.9
2019-Sep-28 08:30N 37°49' W 009°15'3 5.8
2019-Sep-28 08:00N 37°46' W 009°14'4 5.9
2019-Sep-28 07:16N 37°42' W 009°14'1 5.9
2019-Sep-28 07:00N 37°40' W 009°13'3 6.1
2019-Sep-28 06:29N 37°37' W 009°12'6 6.4
2019-Sep-28 05:31N 37°31' W 009°12'0 6.9
2019-Sep-28 05:30N 37°31' W 009°12'6 6.8
2019-Sep-28 04:37N 37°25' W 009°10'3 7.0
2019-Sep-28 04:13N 37°22' W 009°10'25 6.5
2019-Sep-28 00:23N 36°58' W 009°06'11 6.0
2019-Sep-27 22:32N 36°50' W 008°56'4 6.6
2019-Sep-27 21:54N 36°47' W 008°52'3 6.7
2019-Sep-27 21:25N 36°45' W 008°49'3 6.7
2019-Sep-27 21:00N 36°43' W 008°47'3 6.8
2019-Sep-27 20:30N 36°40' W 008°44'3 6.8
2019-Sep-27 20:00N 36°38' W 008°41'5 6.7
2019-Sep-27 19:19N 36°35' W 008°36'2 6.7
2019-Sep-27 19:00N 36°34' W 008°34'3 6.7
2019-Sep-27 18:30N 36°31' W 008°31'4 6.8
2019-Sep-27 17:55N 36°29' W 008°28'4 7.2
2019-Sep-27 17:18N 36°26' W 008°24'3 7.2
2019-Sep-27 16:51N 36°23' W 008°21'3 7.3
2019-Sep-27 16:28N 36°21' W 008°18'3 2.0
2019-Sep-27 14:55N 36°20' W 008°15'33 5.2
2019-Sep-27 08:31N 36°41' W 008°48'0 7.8
2019-Sep-27 08:30N 36°41' W 008°48'4 8.0
2019-Sep-27 08:00N 36°43' W 008°52'16 8.1
2019-Sep-27 06:04N 36°53' W 009°07'1 7.9
2019-Sep-27 05:59N 36°54' W 009°07'47 7.6
2019-Sep-26 23:44N 37°41' W 009°07'2 8.2
2019-Sep-26 23:27N 37°43' W 009°07'4 8.2
2019-Sep-26 23:00N 37°47' W 009°07'4 8.3
2019-Sep-26 22:30N 37°51' W 009°07'4 8.4
2019-Sep-26 22:00N 37°55' W 009°07'4 8.2
2019-Sep-26 21:30N 37°59' W 009°07'4 8.1
2019-Sep-26 21:00N 38°03' W 009°07'4 7.8
2019-Sep-26 20:30N 38°07' W 009°07'4 7.7
2019-Sep-26 20:01N 38°11' W 009°06'4 7.7
2019-Sep-26 19:30N 38°15' W 009°06'4 7.6
2019-Sep-26 19:00N 38°19' W 009°06'4 7.9
2019-Sep-26 18:30N 38°23' W 009°06'3 6.0
2019-Sep-26 17:58N 38°26' W 009°06'0 0.1
2019-Sep-26 17:28N 38°26' W 009°06'0 0.0
2019-Sep-26 16:58N 38°26' W 009°06'0 0.0
2019-Sep-26 16:28N 38°26' W 009°06'0 0.0
2019-Sep-26 15:55N 38°26' W 009°06'0 0.0
2019-Sep-26 15:28N 38°26' W 009°06'0 0.1
2019-Sep-26 14:55N 38°26' W 009°06'0 0.1
2019-Sep-26 14:28N 38°26' W 009°06'0 0.0
2019-Sep-26 13:58N 38°26' W 009°06'0 0.0
2019-Sep-26 13:28N 38°26' W 009°06'0 0.1
2019-Sep-26 12:52N 38°26' W 009°06'0 0.0
2019-Sep-26 12:28N 38°26' W 009°06'0 0.0
2019-Sep-26 11:55N 38°26' W 009°06'0 0.0
2019-Sep-26 11:22N 38°26' W 009°06'0 0.0
2019-Sep-26 10:43N 38°26' W 009°06'0 0.0
2019-Sep-26 10:16N 38°26' W 009°06'0 0.0
2019-Sep-26 09:34N 38°26' W 009°06'0 0.0
2019-Sep-26 09:13N 38°26' W 009°06'0 0.0
2019-Sep-26 08:57N 38°26' W 009°06'0 0.0
2019-Sep-26 08:28N 38°26' W 009°06'0 0.0
2019-Sep-26 08:00N 38°26' W 009°06'0 0.0
2019-Sep-26 07:30N 38°26' W 009°06'0 0.0
2019-Sep-26 07:00N 38°26' W 009°06'1 2.4
2019-Sep-26 06:30N 38°25' W 009°06'4 1.1
2019-Sep-26 03:19N 38°21' W 009°08'2 7.9
2019-Sep-26 03:00N 38°21' W 009°04'2 3.3
2019-Sep-26 02:30N 38°21' W 009°06'1 1.3
2019-Sep-26 01:59N 38°21' W 009°06'3 6.2
2019-Sep-26 01:30N 38°19' W 009°04'4 7.4
2019-Sep-26 01:00N 38°17' W 008°60'4 8.8
2019-Sep-26 00:30N 38°14' W 008°56'1 2.8
2019-Sep-26 00:00N 38°14' W 008°54'2 3.9
2019-Sep-25 23:30N 38°16' W 008°54'3 5.7
2019-Sep-25 23:00N 38°13' W 008°54'4 7.6
2019-Sep-25 22:30N 38°17' W 008°54'2 4.0
2019-Sep-25 22:00N 38°19' W 008°54'4 7.1
2019-Sep-25 21:30N 38°15' W 008°54'2 3.6
2019-Sep-25 21:00N 38°13' W 008°53'4 7.7
2019-Sep-25 20:30N 38°17' W 008°53'1 1.1
2019-Sep-25 20:00N 38°17' W 008°53'3 6.8
2019-Sep-25 19:30N 38°13' W 008°53'2 3.8
2019-Sep-25 19:00N 38°15' W 008°53'4 7.6
2019-Sep-25 18:30N 38°19' W 008°53'4 7.3
2019-Sep-25 18:00N 38°23' W 008°55'3 6.8
2019-Sep-25 17:30N 38°24' W 008°58'4 7.2
2019-Sep-25 17:00N 38°25' W 009°03'3 5.4
2019-Sep-25 16:30N 38°26' W 009°06'0 0.1
2019-Sep-25 15:59N 38°26' W 009°06'0 0.1
2019-Sep-25 15:29N 38°26' W 009°06'0 0.0
2019-Sep-25 14:59N 38°26' W 009°06'0 0.0
2019-Sep-25 14:29N 38°26' W 009°06'0 0.0
2019-Sep-25 13:59N 38°26' W 009°06'0 0.1
2019-Sep-25 13:29N 38°26' W 009°06'0 0.0
2019-Sep-25 12:53N 38°26' W 009°06'0 0.0
2019-Sep-25 12:29N 38°26' W 009°06'0 0.0
2019-Sep-25 11:41N 38°26' W 009°06'0 0.0
2019-Sep-25 11:23N 38°26' W 009°06'0 0.0
2019-Sep-25 10:47N 38°26' W 009°06'0 0.1
2019-Sep-25 10:23N 38°26' W 009°06'0 0.0
2019-Sep-25 09:35N 38°26' W 009°06'0 0.3
2019-Sep-25 09:29N 38°26' W 009°06'0 0.0
2019-Sep-25 08:59N 38°26' W 009°06'0 0.0
2019-Sep-25 08:31N 38°26' W 009°06'0 0.0
2019-Sep-25 07:59N 38°26' W 009°06'0 0.0
2019-Sep-25 07:30N 38°26' W 009°06'0 0.1
2019-Sep-25 07:01N 38°26' W 009°06'1 2.7
2019-Sep-25 06:30N 38°25' W 009°06'3 5.8
2019-Sep-25 06:00N 38°24' W 009°02'4 7.6
2019-Sep-25 05:31N 38°24' W 008°58'3 6.5
2019-Sep-25 05:01N 38°21' W 008°56'4 7.3
2019-Sep-25 04:31N 38°17' W 008°55'4 7.1
2019-Sep-25 04:01N 38°14' W 008°54'3 5.2
2019-Sep-25 03:30N 38°17' W 008°54'3 5.9
2019-Sep-25 03:01N 38°19' W 008°54'4 7.3
2019-Sep-25 02:31N 38°16' W 008°54'2 4.7
2019-Sep-25 02:00N 38°13' W 008°54'4 7.5
2019-Sep-25 01:31N 38°17' W 008°54'2 3.5
2019-Sep-25 01:01N 38°15' W 008°54'2 3.4
2019-Sep-25 00:31N 38°14' W 008°54'4 7.5
2019-Sep-25 00:01N 38°17' W 008°54'1 1.6
2019-Sep-24 23:31N 38°18' W 008°54'4 7.4
2019-Sep-24 23:00N 38°15' W 008°54'1 1.8
2019-Sep-24 22:30N 38°14' W 008°54'4 7.5
2019-Sep-24 22:01N 38°17' W 008°54'1 2.0
2019-Sep-24 21:31N 38°18' W 008°54'4 7.4
2019-Sep-24 21:01N 38°15' W 008°54'2 4.3
2019-Sep-24 20:30N 38°13' W 008°53'3 6.6
2019-Sep-24 20:00N 38°16' W 008°53'4 7.7
2019-Sep-24 19:30N 38°20' W 008°53'4 7.7
2019-Sep-24 19:01N 38°23' W 008°55'4 7.3
2019-Sep-24 18:30N 38°24' W 008°60'4 7.1
2019-Sep-24 18:00N 38°25' W 009°04'2 2.2
2019-Sep-24 17:10N 38°26' W 009°06'0 0.0
2019-Sep-24 16:34N 38°26' W 009°06'0 0.1
2019-Sep-24 16:28N 38°26' W 009°06'0 0.0
2019-Sep-24 15:55N 38°26' W 009°06'0 0.0
2019-Sep-24 15:28N 38°26' W 009°06'0 0.0
2019-Sep-24 14:58N 38°26' W 009°06'0 0.0
2019-Sep-24 13:43N 38°26' W 009°06'0 0.0
2019-Sep-24 13:22N 38°26' W 009°06'0 0.0
2019-Sep-24 12:43N 38°26' W 009°06'0 0.0
2019-Sep-24 12:28N 38°26' W 009°06'0 0.0
2019-Sep-24 11:52N 38°26' W 009°06'0 0.0
2019-Sep-24 11:28N 38°26' W 009°06'0 0.0
2019-Sep-24 10:52N 38°26' W 009°06'0 0.0
2019-Sep-24 10:28N 38°26' W 009°06'0 0.0
2019-Sep-24 09:40N 38°26' W 009°06'0 0.0
2019-Sep-24 09:10N 38°26' W 009°06'0 0.0
2019-Sep-24 08:55N 38°26' W 009°06'0 0.0
2019-Sep-24 08:13N 38°26' W 009°06'0 0.0
2019-Sep-24 07:43N 38°26' W 009°06'0 0.0
2019-Sep-24 07:28N 38°26' W 009°06'0 0.0
2019-Sep-24 06:49N 38°26' W 009°06'0 0.0
2019-Sep-24 05:19N 38°26' W 009°06'0 0.0
2019-Sep-24 04:58N 38°26' W 009°06'0 0.0
2019-Sep-24 04:16N 38°26' W 009°06'0 0.0
2019-Sep-24 03:58N 38°26' W 009°06'0 0.0
2019-Sep-24 02:43N 38°26' W 009°06'0 0.0
2019-Sep-24 02:28N 38°26' W 009°06'0 0.0
2019-Sep-24 01:58N 38°26' W 009°06'0 0.0
2019-Sep-24 01:19N 38°26' W 009°06'0 0.1
2019-Sep-24 00:52N 38°26' W 009°06'0 0.1
2019-Sep-24 00:28N 38°26' W 009°06'0 0.0
2019-Sep-23 23:40N 38°26' W 009°06'0 0.1
2019-Sep-23 23:28N 38°26' W 009°06'0 0.0
2019-Sep-23 22:58N 38°26' W 009°06'0 0.0
2019-Sep-23 22:25N 38°26' W 009°06'0 0.0
2019-Sep-23 21:43N 38°26' W 009°06'0 0.0
2019-Sep-23 21:22N 38°26' W 009°06'0 0.0
2019-Sep-23 20:46N 38°26' W 009°06'0 0.0
2019-Sep-23 20:23N 38°26' W 009°06'0 0.0
2019-Sep-23 19:59N 38°26' W 009°06'0 0.0
2019-Sep-23 19:23N 38°26' W 009°06'0 0.0
2019-Sep-23 18:59N 38°26' W 009°06'0 0.0
2019-Sep-23 18:23N 38°26' W 009°06'0 0.0
2019-Sep-23 17:29N 38°26' W 009°06'0 0.0
2019-Sep-23 16:49N 38°26' W 009°06'0 0.0
2019-Sep-23 16:28N 38°26' W 009°06'0 0.0
2019-Sep-23 15:49N 38°26' W 009°06'0 0.0
2019-Sep-23 15:13N 38°26' W 009°06'0 0.0
2019-Sep-23 14:58N 38°26' W 009°06'0 0.0
2019-Sep-23 14:19N 38°26' W 009°06'0 0.0
2019-Sep-23 13:55N 38°26' W 009°06'0 0.1
2019-Sep-23 13:19N 38°26' W 009°06'0 0.0
2019-Sep-23 12:58N 38°26' W 009°06'0 0.0
2019-Sep-23 12:28N 38°26' W 009°06'0 0.0
2019-Sep-23 11:58N 38°26' W 009°06'0 0.0
2019-Sep-23 11:22N 38°26' W 009°06'0 0.0
2019-Sep-23 10:58N 38°26' W 009°06'0 0.0
2019-Sep-23 10:28N 38°26' W 009°06'0 0.0
2019-Sep-23 09:58N 38°26' W 009°06'0 0.0
2019-Sep-23 09:28N 38°26' W 009°06'0 0.0
2019-Sep-23 08:58N 38°26' W 009°06'0 0.0
2019-Sep-23 08:25N 38°26' W 009°06'0 0.0
2019-Sep-23 07:55N 38°26' W 009°06'0 0.0
2019-Sep-23 07:22N 38°26' W 009°06'0 0.0
2019-Sep-23 06:58N 38°26' W 009°06'0 0.0
2019-Sep-23 06:25N 38°26' W 009°06'0 0.0
2019-Sep-23 05:55N 38°26' W 009°06'0 0.0
2019-Sep-23 05:16N 38°26' W 009°06'0 0.0
2019-Sep-23 04:49N 38°26' W 009°06'0 0.0
2019-Sep-23 04:28N 38°26' W 009°06'0 0.0
2019-Sep-23 03:58N 38°26' W 009°06'0 0.0
2019-Sep-23 03:28N 38°26' W 009°06'0 0.0
2019-Sep-23 02:55N 38°26' W 009°06'0 0.0
2019-Sep-23 01:58N 38°26' W 009°06'0 0.0
2019-Sep-23 01:25N 38°26' W 009°06'0 0.0
2019-Sep-23 00:55N 38°26' W 009°06'0 0.0
2019-Sep-23 00:25N 38°26' W 009°06'0 0.0
2019-Sep-22 23:43N 38°26' W 009°06'0 0.0
2019-Sep-22 22:37N 38°26' W 009°06'0 0.0
2019-Sep-22 22:25N 38°26' W 009°06'0 0.0
2019-Sep-22 21:58N 38°26' W 009°06'0 0.0
2019-Sep-22 21:22N 38°26' W 009°06'0 0.0
2019-Sep-22 21:00N 38°26' W 009°06'2 4.3
2019-Sep-22 20:30N 38°24' W 009°08'3 6.9
2019-Sep-22 20:00N 38°23' W 009°12'3 5.8
2019-Sep-22 19:30N 38°25' W 009°16'4 8.1
2019-Sep-22 19:00N 38°28' W 009°17'4 8.0
2019-Sep-22 18:31N 38°32' W 009°18'4 7.8
2019-Sep-22 18:01N 38°36' W 009°21'4 7.3
2019-Sep-22 17:30N 38°39' W 009°20'4 7.0
2019-Sep-22 17:00N 38°41' W 009°15'4 8.7
2019-Sep-22 16:30N 38°42' W 009°10'2 0.0
2019-Sep-20 21:02N 38°40' W 009°09'0 0.0
2019-Sep-20 20:59N 38°40' W 009°09'0 0.0
2019-Sep-20 20:31N 38°40' W 009°09'2 3.3
2019-Sep-20 20:01N 38°42' W 009°08'4 8.3
2019-Sep-20 19:31N 38°41' W 009°14'4 8.7
2019-Sep-20 19:01N 38°40' W 009°19'4 8.6
2019-Sep-20 18:30N 38°36' W 009°23'4 7.7
2019-Sep-20 18:01N 38°33' W 009°21'4 7.8
2019-Sep-20 17:31N 38°29' W 009°19'4 7.8
2019-Sep-20 17:00N 38°26' W 009°16'4 7.4
2019-Sep-20 16:31N 38°24' W 009°12'4 7.8
2019-Sep-20 16:00N 38°25' W 009°07'3 5.8
2019-Sep-20 15:31N 38°25' W 009°03'4 8.8
2019-Sep-20 15:00N 38°27' W 008°58'4 7.5
2019-Sep-20 14:31N 38°30' W 008°55'1 2.5
2019-Sep-20 14:00N 38°31' W 008°54'0 0.3
2019-Sep-20 13:18N 38°31' W 008°54'0 0.0
2019-Sep-20 12:48N 38°31' W 008°54'0 0.0
2019-Sep-20 10:59N 38°31' W 008°54'1 1.7
2019-Sep-20 10:30N 38°31' W 008°55'3 4.9
2019-Sep-20 09:57N 38°29' W 008°52'0 0.0
2019-Sep-20 09:30N 38°29' W 008°52'0 0.5
2019-Sep-20 09:00N 38°29' W 008°52'3 5.1
2019-Sep-20 08:30N 38°30' W 008°55'1 1.5
2019-Sep-20 07:41N 38°31' W 008°54'0 0.0
2019-Sep-20 04:11N 38°31' W 008°54'0 0.0
2019-Sep-20 02:47N 38°31' W 008°54'0 0.0
2019-Sep-20 02:17N 38°31' W 008°54'0 0.0
2019-Sep-20 01:11N 38°31' W 008°54'0 0.0
2019-Sep-19 11:16N 38°31' W 008°54'0 0.7
2019-Sep-19 10:59N 38°31' W 008°54'2 4.1
2019-Sep-19 10:31N 38°29' W 008°53'1 2.5
2019-Sep-19 10:01N 38°28' W 008°52'1 1.2
2019-Sep-19 09:31N 38°29' W 008°52'0 0.6
2019-Sep-19 09:01N 38°29' W 008°52'2 3.1
2019-Sep-19 08:30N 38°30' W 008°53'  

Dump ship's entire track history